Time;durP1;ratioP1;P1;durP2;ratioP2;P2;SDS_P1;SDS_P2;PMS_P1;PMS_P2;Temp;Humidity;BMP_temperature;BMP_pressure;BME280_temperature;BME280_humidity;BME280_pressure;Samples;Min_cycle;Max_cycle;Signal;HPM_P1;HPM_P2
2023/05/17 00:01:15;;;;;;;8.13;1.05;;;;;;;;;;5064256;28;20102;-70
2023/05/17 00:03:42;;;;;;;9.93;1.10;;;;;;;;;;5068195;28;20067;-70
2023/05/17 00:06:09;;;;;;;7.55;1.25;;;;;;;;;;5066458;28;20052;-70
2023/05/17 00:08:37;;;;;;;9.20;1.15;;;;;;;;;;5070488;28;20056;-70
2023/05/17 00:11:04;;;;;;;9.10;1.23;;;;;;;;;;5069843;28;20396;-70
2023/05/17 00:13:31;;;;;;;4.95;1.05;;;;;;;;;;5066085;28;20053;-70
2023/05/17 00:16:00;;;;;;;10.93;1.05;;;;;;;;;;5062524;28;20063;-70
2023/05/17 00:18:27;;;;;;;4.22;0.90;;;;;;;;;;5067279;28;20048;-70
2023/05/17 00:20:54;;;;;;;4.80;0.57;;;;;;;;;;5066358;28;20106;-70
2023/05/17 00:23:21;;;;;;;5.65;1.02;;;;;;;;;;5067365;28;20048;-70
2023/05/17 00:25:48;;;;;;;15.10;1.20;;;;;;;;;;5067118;28;20052;-70
2023/05/17 00:28:16;;;;;;;4.88;0.90;;;;;;;;;;5070230;28;20064;-70
2023/05/17 00:30:43;;;;;;;8.27;1.05;;;;;;;;;;5068209;28;20148;-70
2023/05/17 00:33:11;;;;;;;12.38;1.17;;;;;;;;;;5068452;28;20045;-70
2023/05/17 00:35:39;;;;;;;6.78;1.13;;;;;;;;;;5069101;28;20058;-69
2023/05/17 00:38:06;;;;;;;7.43;1.10;;;;;;;;;;5062239;28;20805;-70
2023/05/17 00:40:33;;;;;;;6.80;1.10;;;;;;;;;;5072048;28;20482;-70
2023/05/17 00:43:00;;;;;;;4.90;0.90;;;;;;;;;;5069134;28;20048;-70
2023/05/17 00:45:28;;;;;;;9.05;1.02;;;;;;;;;;5068177;28;20683;-70
2023/05/17 00:47:55;;;;;;;8.23;1.00;;;;;;;;;;5067758;28;20049;-70
2023/05/17 00:50:23;;;;;;;4.97;0.90;;;;;;;;;;5066871;28;20422;-70
2023/05/17 00:52:51;;;;;;;9.38;0.82;;;;;;;;;;5067045;28;20040;-70
2023/05/17 00:55:18;;;;;;;6.47;1.13;;;;;;;;;;5060672;28;20056;-70
2023/05/17 00:57:46;;;;;;;9.40;1.02;;;;;;;;;;5063721;28;20105;-70
2023/05/17 01:00:13;;;;;;;6.00;0.80;;;;;;;;;;5065473;28;20041;-70
2023/05/17 01:02:43;;;;;;;2.75;0.85;;;;;;;;;;5067622;28;20082;-70
2023/05/17 01:05:10;;;;;;;10.23;1.08;;;;;;;;;;5060092;28;20092;-70
2023/05/17 01:07:39;;;;;;;12.38;1.20;;;;;;;;;;5068474;28;20053;-70
2023/05/17 01:10:07;;;;;;;8.07;1.50;;;;;;;;;;5067238;28;20491;-70
2023/05/17 01:12:39;;;;;;;9.10;1.13;;;;;;;;;;5062884;28;20102;-70
2023/05/17 01:15:09;;;;;;;7.00;1.13;;;;;;;;;;5060492;28;20056;-70
2023/05/17 01:17:39;;;;;;;5.68;1.00;;;;;;;;;;5067372;28;20492;-70
2023/05/17 01:20:11;;;;;;;9.00;1.38;;;;;;;;;;5066706;28;20068;-70
2023/05/17 01:22:45;;;;;;;5.50;0.82;;;;;;;;;;5067832;28;20044;-70
2023/05/17 01:25:17;;;;;;;4.88;0.80;;;;;;;;;;5066959;28;20547;-70
2023/05/17 01:27:47;;;;;;;4.95;0.70;;;;;;;;;;5070087;28;20055;-70
2023/05/17 01:30:16;;;;;;;6.10;1.00;;;;;;;;;;5064266;28;20047;-70
2023/05/17 01:32:44;;;;;;;5.78;1.20;;;;;;;;;;5068918;28;20076;-70
2023/05/17 01:35:12;;;;;;;3.38;0.80;;;;;;;;;;5066137;28;20620;-70
2023/05/17 01:37:39;;;;;;;4.75;0.68;;;;;;;;;;5068594;28;20044;-70
2023/05/17 01:40:08;;;;;;;7.43;0.80;;;;;;;;;;5060216;28;20052;-70
2023/05/17 01:42:36;;;;;;;11.15;0.88;;;;;;;;;;5068630;28;20092;-70
2023/05/17 01:45:06;;;;;;;3.10;0.70;;;;;;;;;;5068316;28;20041;-70
2023/05/17 01:47:37;;;;;;;6.60;0.60;;;;;;;;;;5065098;28;20049;-70
2023/05/17 01:50:07;;;;;;;7.25;0.75;;;;;;;;;;5074864;28;20056;-70
2023/05/17 01:52:38;;;;;;;10.18;0.80;;;;;;;;;;5069051;28;20056;-70
2023/05/17 01:55:09;;;;;;;8.50;0.75;;;;;;;;;;5071395;28;20052;-70
2023/05/17 01:57:37;;;;;;;2.50;0.63;;;;;;;;;;5066061;28;20052;-69
2023/05/17 02:00:08;;;;;;;3.58;0.77;;;;;;;;;;5064446;28;20060;-70
2023/05/17 02:02:35;;;;;;;3.10;0.63;;;;;;;;;;5065705;28;20135;-70
2023/05/17 02:05:02;;;;;;;8.52;0.85;;;;;;;;;;5073080;28;20045;-70
2023/05/17 02:07:29;;;;;;;3.70;0.60;;;;;;;;;;5071319;28;20048;-70
2023/05/17 02:09:57;;;;;;;6.55;0.73;;;;;;;;;;5072160;28;20047;-70
2023/05/17 02:12:24;;;;;;;4.55;0.60;;;;;;;;;;5071088;28;20064;-69
2023/05/17 02:14:52;;;;;;;5.53;0.70;;;;;;;;;;5071742;28;20495;-70
2023/05/17 02:17:20;;;;;;;3.13;0.52;;;;;;;;;;5071224;28;20044;-70
2023/05/17 02:19:47;;;;;;;7.85;0.77;;;;;;;;;;5070103;28;20110;-70
2023/05/17 02:22:15;;;;;;;5.85;0.68;;;;;;;;;;5072761;28;20044;-70
2023/05/17 02:24:42;;;;;;;3.53;0.60;;;;;;;;;;5067384;28;20063;-70
2023/05/17 02:27:10;;;;;;;2.10;0.50;;;;;;;;;;5069847;28;20070;-70
2023/05/17 02:29:37;;;;;;;5.57;0.63;;;;;;;;;;5072316;28;20094;-70
2023/05/17 02:32:05;;;;;;;13.68;1.23;;;;;;;;;;5069310;28;20519;-70
2023/05/17 02:34:33;;;;;;;6.28;0.68;;;;;;;;;;5071688;28;20054;-70
2023/05/17 02:37:00;;;;;;;5.47;0.75;;;;;;;;;;5066092;28;20055;-70
2023/05/17 02:39:28;;;;;;;3.47;0.70;;;;;;;;;;5069048;28;20123;-70
2023/05/17 02:41:55;;;;;;;3.85;0.60;;;;;;;;;;5069529;28;20060;-70
2023/05/17 02:44:22;;;;;;;3.85;0.63;;;;;;;;;;5068348;28;21090;-70
2023/05/17 02:46:49;;;;;;;5.60;0.70;;;;;;;;;;5074646;28;20052;-70
2023/05/17 02:49:17;;;;;;;4.05;0.63;;;;;;;;;;5070101;28;20040;-69
2023/05/17 02:51:45;;;;;;;7.55;0.85;;;;;;;;;;5069810;28;20044;-70
2023/05/17 02:54:12;;;;;;;8.55;0.98;;;;;;;;;;5067398;28;20416;-70
2023/05/17 02:56:39;;;;;;;4.60;0.70;;;;;;;;;;5071879;28;20055;-70
2023/05/17 02:59:07;;;;;;;5.90;0.80;;;;;;;;;;5068150;28;20049;-70
2023/05/17 03:01:34;;;;;;;2.85;0.63;;;;;;;;;;5070271;28;20045;-70
2023/05/17 03:04:01;;;;;;;6.38;0.75;;;;;;;;;;5067805;28;20080;-70
2023/05/17 03:06:28;;;;;;;5.05;0.90;;;;;;;;;;5064778;28;20484;-70
2023/05/17 03:08:57;;;;;;;5.68;0.77;;;;;;;;;;5071124;28;20047;-69
2023/05/17 03:11:24;;;;;;;6.57;0.80;;;;;;;;;;5068913;28;20051;-70
2023/05/17 03:13:52;;;;;;;6.05;0.85;;;;;;;;;;5066533;28;20056;-70
2023/05/17 03:16:19;;;;;;;5.20;0.60;;;;;;;;;;5069193;28;20040;-70
2023/05/17 03:18:46;;;;;;;2.90;0.57;;;;;;;;;;5070254;28;20072;-69
2023/05/17 03:21:14;;;;;;;3.55;0.55;;;;;;;;;;5064130;28;20051;-70
2023/05/17 03:23:41;;;;;;;6.05;0.73;;;;;;;;;;5070219;28;20096;-70
2023/05/17 03:26:09;;;;;;;4.82;0.60;;;;;;;;;;5070190;28;20057;-70
2023/05/17 03:28:37;;;;;;;8.73;0.73;;;;;;;;;;5065645;28;20056;-70
2023/05/17 03:31:04;;;;;;;5.63;0.63;;;;;;;;;;5069260;28;20055;-70
2023/05/17 03:33:32;;;;;;;3.15;0.60;;;;;;;;;;5067347;28;20049;-70
2023/05/17 03:35:59;;;;;;;3.05;0.70;;;;;;;;;;5068985;28;20048;-70
2023/05/17 03:38:26;;;;;;;4.47;0.90;;;;;;;;;;5069598;28;20062;-70
2023/05/17 03:40:54;;;;;;;5.57;0.70;;;;;;;;;;5069125;28;20063;-70
2023/05/17 03:43:22;;;;;;;1.48;0.50;;;;;;;;;;5069171;28;20502;-70
2023/05/17 03:45:50;;;;;;;4.13;0.70;;;;;;;;;;5068739;28;20041;-69
2023/05/17 03:48:17;;;;;;;3.08;0.40;;;;;;;;;;5067889;28;20056;-69
2023/05/17 03:50:44;;;;;;;6.85;0.65;;;;;;;;;;5069144;28;20044;-70
2023/05/17 03:53:11;;;;;;;2.65;0.82;;;;;;;;;;5069101;28;20530;-70
2023/05/17 03:55:39;;;;;;;5.55;0.63;;;;;;;;;;5067016;28;20660;-70
2023/05/17 03:58:06;;;;;;;4.22;0.60;;;;;;;;;;5070586;28;20052;-70
2023/05/17 04:00:35;;;;;;;3.20;0.38;;;;;;;;;;5069318;28;20399;-70
2023/05/17 04:03:02;;;;;;;5.90;0.50;;;;;;;;;;5068537;28;20063;-70
2023/05/17 04:05:29;;;;;;;3.35;0.50;;;;;;;;;;5064412;28;20534;-70
2023/05/17 04:07:57;;;;;;;3.90;0.60;;;;;;;;;;5068526;28;20044;-69
2023/05/17 04:10:24;;;;;;;1.77;0.70;;;;;;;;;;5066444;28;20045;-70
2023/05/17 04:12:51;;;;;;;3.40;0.82;;;;;;;;;;5069015;28;20059;-70
2023/05/17 04:15:19;;;;;;;1.98;0.35;;;;;;;;;;5066592;28;20048;-70
2023/05/17 04:17:47;;;;;;;3.25;0.50;;;;;;;;;;5066795;28;20056;-70
2023/05/17 04:20:14;;;;;;;2.97;0.47;;;;;;;;;;5066767;28;20040;-70
2023/05/17 04:22:42;;;;;;;7.53;0.82;;;;;;;;;;5068210;28;20060;-70
2023/05/17 04:25:09;;;;;;;7.55;0.65;;;;;;;;;;5067175;28;20488;-70
2023/05/17 04:27:37;;;;;;;3.20;0.70;;;;;;;;;;5069900;28;20048;-70
2023/05/17 04:30:04;;;;;;;5.43;0.30;;;;;;;;;;5066066;28;20403;-70
2023/05/17 04:32:32;;;;;;;3.47;0.75;;;;;;;;;;5068338;28;20547;-70
2023/05/17 04:35:02;;;;;;;5.38;0.68;;;;;;;;;;5068690;28;20561;-70
2023/05/17 04:37:29;;;;;;;2.97;0.55;;;;;;;;;;5066020;28;20052;-70
2023/05/17 04:39:57;;;;;;;1.38;0.30;;;;;;;;;;5069007;28;20049;-70
2023/05/17 04:42:25;;;;;;;3.78;0.68;;;;;;;;;;5066903;28;20052;-70
2023/05/17 04:44:52;;;;;;;6.55;0.60;;;;;;;;;;5063122;28;20052;-70
2023/05/17 04:47:19;;;;;;;3.67;0.80;;;;;;;;;;5067899;28;20044;-70
2023/05/17 04:49:47;;;;;;;5.75;0.70;;;;;;;;;;5069903;28;20094;-70
2023/05/17 04:52:16;;;;;;;2.83;0.60;;;;;;;;;;5069206;28;20113;-69
2023/05/17 04:54:43;;;;;;;4.63;0.75;;;;;;;;;;5067652;28;20079;-69
2023/05/17 04:57:10;;;;;;;5.18;0.88;;;;;;;;;;5066075;28;20080;-70
2023/05/17 04:59:37;;;;;;;6.40;0.90;;;;;;;;;;5067733;28;20063;-69
2023/05/17 05:02:05;;;;;;;5.25;0.68;;;;;;;;;;5063979;28;20057;-70
2023/05/17 05:04:32;;;;;;;6.75;0.80;;;;;;;;;;5072581;28;20055;-70
2023/05/17 05:07:00;;;;;;;3.70;0.77;;;;;;;;;;5065630;28;20045;-70
2023/05/17 05:09:28;;;;;;;3.72;0.52;;;;;;;;;;5068725;28;20051;-70
2023/05/17 05:11:55;;;;;;;6.82;0.80;;;;;;;;;;5069498;28;20049;-69
2023/05/17 05:14:23;;;;;;;4.80;0.57;;;;;;;;;;5065583;28;20056;-70
2023/05/17 05:16:50;;;;;;;4.38;0.60;;;;;;;;;;5059511;28;20051;-72
2023/05/17 05:19:17;;;;;;;5.55;0.75;;;;;;;;;;5057158;28;20045;-71
2023/05/17 05:21:45;;;;;;;3.25;0.88;;;;;;;;;;5055436;28;20065;-72
2023/05/17 05:24:12;;;;;;;11.30;1.00;;;;;;;;;;5061597;28;20093;-73
2023/05/17 05:26:41;;;;;;;5.72;0.70;;;;;;;;;;5068003;28;20045;-74
2023/05/17 05:29:08;;;;;;;6.78;0.93;;;;;;;;;;5069008;28;20044;-72
2023/05/17 05:31:36;;;;;;;7.55;1.00;;;;;;;;;;5070325;28;20052;-71
2023/05/17 05:34:03;;;;;;;9.93;2.15;;;;;;;;;;5067673;28;20041;-74
2023/05/17 05:36:30;;;;;;;5.00;1.02;;;;;;;;;;5067044;28;20055;-73
2023/05/17 05:38:58;;;;;;;10.13;0.90;;;;;;;;;;5069058;28;20480;-72
2023/05/17 05:41:25;;;;;;;5.20;0.88;;;;;;;;;;5070063;28;20044;-70
2023/05/17 05:43:53;;;;;;;7.40;0.95;;;;;;;;;;5071465;28;20048;-70
2023/05/17 05:46:21;;;;;;;8.80;1.00;;;;;;;;;;5067999;28;20052;-71
2023/05/17 05:48:48;;;;;;;6.25;0.98;;;;;;;;;;5068634;28;20782;-71
2023/05/17 05:51:15;;;;;;;5.88;0.80;;;;;;;;;;5067291;28;20364;-71
2023/05/17 05:53:42;;;;;;;5.88;0.98;;;;;;;;;;5070117;28;20632;-71
2023/05/17 05:56:10;;;;;;;6.03;0.75;;;;;;;;;;5072535;28;20064;-71
2023/05/17 05:58:37;;;;;;;5.95;0.82;;;;;;;;;;5069998;28;20520;-71
2023/05/17 06:01:05;;;;;;;4.63;0.85;;;;;;;;;;5071221;28;20055;-70
2023/05/17 06:03:33;;;;;;;6.07;0.80;;;;;;;;;;5069819;28;20048;-71
2023/05/17 06:06:00;;;;;;;5.72;1.00;;;;;;;;;;5064425;28;20055;-71
2023/05/17 06:08:27;;;;;;;4.18;0.90;;;;;;;;;;5072649;28;20050;-71
2023/05/17 06:10:54;;;;;;;6.43;0.80;;;;;;;;;;5066410;28;20048;-71
2023/05/17 06:13:22;;;;;;;10.30;1.25;;;;;;;;;;5068521;28;20062;-71
2023/05/17 06:15:49;;;;;;;8.25;1.00;;;;;;;;;;5070939;28;20403;-71
2023/05/17 06:18:18;;;;;;;6.63;1.00;;;;;;;;;;5069525;28;20049;-71
2023/05/17 06:20:46;;;;;;;4.18;0.90;;;;;;;;;;5069536;28;20049;-71
2023/05/17 06:23:14;;;;;;;11.15;1.40;;;;;;;;;;5070919;28;20063;-71
2023/05/17 06:25:41;;;;;;;3.58;0.70;;;;;;;;;;5071205;28;20071;-71
2023/05/17 06:28:09;;;;;;;8.27;0.80;;;;;;;;;;5070919;28;20049;-71
2023/05/17 06:30:36;;;;;;;8.52;1.23;;;;;;;;;;5073604;28;20044;-71
2023/05/17 06:33:03;;;;;;;5.88;0.60;;;;;;;;;;5070813;28;20453;-71
2023/05/17 06:35:32;;;;;;;3.70;0.70;;;;;;;;;;5074785;28;20098;-71
2023/05/17 06:37:59;;;;;;;6.03;1.00;;;;;;;;;;5065404;28;20054;-71
2023/05/17 06:40:26;;;;;;;7.30;0.98;;;;;;;;;;5070419;28;20049;-71
2023/05/17 06:42:54;;;;;;;6.03;0.85;;;;;;;;;;5068240;28;20144;-71
2023/05/17 06:45:21;;;;;;;3.10;0.73;;;;;;;;;;5070028;28;20076;-71
2023/05/17 06:47:48;;;;;;;6.40;1.00;;;;;;;;;;5070293;28;20113;-70
2023/05/17 06:50:16;;;;;;;5.28;0.90;;;;;;;;;;5066186;28;20052;-70
2023/05/17 06:52:45;;;;;;;4.30;0.73;;;;;;;;;;5067369;28;20059;-70
2023/05/17 06:55:12;;;;;;;4.75;1.00;;;;;;;;;;5066676;28;20166;-70
2023/05/17 06:57:40;;;;;;;7.78;1.10;;;;;;;;;;5065614;28;20403;-71
2023/05/17 07:00:09;;;;;;;5.60;1.00;;;;;;;;;;5071661;28;20117;-71
2023/05/17 07:02:37;;;;;;;5.95;1.00;;;;;;;;;;5062021;28;20044;-70
2023/05/17 07:05:06;;;;;;;4.00;0.85;;;;;;;;;;5057209;28;20048;-71
2023/05/17 07:07:33;;;;;;;5.57;1.20;;;;;;;;;;5063559;28;20041;-71
2023/05/17 07:10:01;;;;;;;7.10;1.08;;;;;;;;;;5067349;28;20041;-70
2023/05/17 07:12:29;;;;;;;6.63;1.00;;;;;;;;;;5064295;28;20045;-70
2023/05/17 07:14:56;;;;;;;4.95;0.95;;;;;;;;;;5062791;28;20068;-70
2023/05/17 07:17:23;;;;;;;6.78;0.80;;;;;;;;;;5063524;28;20049;-71
2023/05/17 07:19:50;;;;;;;5.85;0.82;;;;;;;;;;5057176;28;20488;-71
2023/05/17 07:22:18;;;;;;;3.90;0.93;;;;;;;;;;5062816;28;20054;-70
2023/05/17 07:24:45;;;;;;;3.80;0.70;;;;;;;;;;5063527;28;20067;-74
2023/05/17 07:27:14;;;;;;;5.40;1.23;;;;;;;;;;5055955;28;20053;-74
2023/05/17 07:29:41;;;;;;;6.13;1.10;;;;;;;;;;5067520;28;20448;-74
2023/05/17 07:32:09;;;;;;;6.35;0.82;;;;;;;;;;5067096;28;20048;-74
2023/05/17 07:34:36;;;;;;;3.38;0.70;;;;;;;;;;5061717;28;20048;-74
2023/05/17 07:37:03;;;;;;;7.32;0.90;;;;;;;;;;5065382;28;20052;-75
2023/05/17 07:39:31;;;;;;;5.65;0.95;;;;;;;;;;5068748;28;20051;-75
2023/05/17 07:41:58;;;;;;;2.65;0.73;;;;;;;;;;5070083;28;20060;-75
2023/05/17 07:44:26;;;;;;;8.90;1.48;;;;;;;;;;5070896;28;20044;-75
2023/05/17 07:46:54;;;;;;;5.45;1.13;;;;;;;;;;5068530;28;20427;-75
2023/05/17 07:49:21;;;;;;;5.88;0.90;;;;;;;;;;5064614;28;20059;-74
2023/05/17 07:51:48;;;;;;;5.28;1.00;;;;;;;;;;5071254;28;20052;-75
2023/05/17 07:54:23;;;;;;;8.38;0.95;;;;;;;;;;5071680;28;20065;-75
2023/05/17 07:56:52;;;;;;;4.55;0.73;;;;;;;;;;5066387;28;20106;-75
2023/05/17 07:59:20;;;;;;;4.45;0.90;;;;;;;;;;5065333;28;20052;-74
2023/05/17 08:01:48;;;;;;;5.88;0.88;;;;;;;;;;5065357;28;20095;-75
2023/05/17 08:04:15;;;;;;;6.55;1.38;;;;;;;;;;5064251;28;20060;-75
2023/05/17 08:06:44;;;;;;;4.88;0.82;;;;;;;;;;5061539;28;20045;-75
2023/05/17 08:09:11;;;;;;;4.57;0.77;;;;;;;;;;5070231;28;20518;-75
2023/05/17 08:11:45;;;;;;;5.13;0.80;;;;;;;;;;5068965;28;20525;-75
2023/05/17 08:14:13;;;;;;;4.68;0.95;;;;;;;;;;5069398;28;20098;-75
2023/05/17 08:16:41;;;;;;;7.07;1.13;;;;;;;;;;5072365;28;20103;-75
2023/05/17 08:19:12;;;;;;;5.78;0.80;;;;;;;;;;5070307;28;20044;-75
2023/05/17 08:21:39;;;;;;;8.50;0.98;;;;;;;;;;5068133;28;20064;-75
2023/05/17 08:24:08;;;;;;;2.72;0.90;;;;;;;;;;5069196;28;20102;-75
2023/05/17 08:26:36;;;;;;;5.53;0.80;;;;;;;;;;5075124;28;20139;-74
2023/05/17 08:29:04;;;;;;;5.38;0.90;;;;;;;;;;5064967;28;20071;-75
2023/05/17 08:31:31;;;;;;;4.78;0.98;;;;;;;;;;5070525;28;20044;-75
2023/05/17 08:33:58;;;;;;;7.22;0.80;;;;;;;;;;5062946;28;20515;-74
2023/05/17 08:36:27;;;;;;;5.05;0.70;;;;;;;;;;5063691;28;20045;-74
2023/05/17 08:38:54;;;;;;;4.25;0.90;;;;;;;;;;5065871;28;20441;-73
2023/05/17 08:41:22;;;;;;;5.43;1.00;;;;;;;;;;5067127;28;20044;-74
2023/05/17 08:43:49;;;;;;;6.28;0.75;;;;;;;;;;5063564;28;20506;-74
2023/05/17 08:46:20;;;;;;;6.25;1.00;;;;;;;;;;5064948;28;20504;-75
2023/05/17 08:48:50;;;;;;;2.67;0.80;;;;;;;;;;5061554;28;20095;-75
2023/05/17 08:51:18;;;;;;;5.22;0.88;;;;;;;;;;5063056;28;20056;-74
2023/05/17 08:53:46;;;;;;;9.07;1.40;;;;;;;;;;5068057;28;20128;-75
2023/05/17 08:56:16;;;;;;;6.95;0.88;;;;;;;;;;5062757;28;20110;-74
2023/05/17 08:58:44;;;;;;;8.48;0.88;;;;;;;;;;5064562;28;20055;-75
2023/05/17 09:01:11;;;;;;;6.07;0.80;;;;;;;;;;5067654;28;20101;-75
2023/05/17 09:03:40;;;;;;;4.15;0.90;;;;;;;;;;5073865;28;20063;-78
2023/05/17 09:06:08;;;;;;;4.40;1.10;;;;;;;;;;5066764;28;20403;-75
2023/05/17 09:08:36;;;;;;;3.63;0.90;;;;;;;;;;5070512;28;20045;-75
2023/05/17 09:11:04;;;;;;;2.67;0.70;;;;;;;;;;5060753;28;20052;-74
2023/05/17 09:13:31;;;;;;;3.92;0.90;;;;;;;;;;5069311;28;20041;-74
2023/05/17 09:15:59;;;;;;;5.68;0.90;;;;;;;;;;5062209;28;20049;-74
2023/05/17 09:18:32;;;;;;;6.35;0.60;;;;;;;;;;5067741;28;20052;-75
2023/05/17 09:21:03;;;;;;;4.35;0.77;;;;;;;;;;5065171;28;20058;-74
2023/05/17 09:23:32;;;;;;;3.42;0.77;;;;;;;;;;5068611;28;20484;-75
2023/05/17 09:26:06;;;;;;;2.85;0.73;;;;;;;;;;5063604;28;20098;-75
2023/05/17 09:28:38;;;;;;;3.58;0.68;;;;;;;;;;5063445;28;20056;-68
2023/05/17 09:31:07;;;;;;;4.20;0.60;;;;;;;;;;5064946;28;20411;-69
2023/05/17 09:33:34;;;;;;;2.22;0.95;;;;;;;;;;5063682;28;20075;-69
2023/05/17 09:36:01;;;;;;;3.20;0.82;;;;;;;;;;5063054;28;20044;-69
2023/05/17 09:38:29;;;;;;;3.53;0.70;;;;;;;;;;5063581;28;20072;-68
2023/05/17 09:40:57;;;;;;;3.92;0.90;;;;;;;;;;5063426;28;20036;-69
2023/05/17 09:43:26;;;;;;;3.22;0.75;;;;;;;;;;5061025;28;20052;-69
2023/05/17 09:45:57;;;;;;;2.97;0.70;;;;;;;;;;5061379;28;20451;-68
2023/05/17 09:48:26;;;;;;;3.63;0.80;;;;;;;;;;5060923;28;20528;-69
2023/05/17 09:50:53;;;;;;;2.60;0.80;;;;;;;;;;5060776;28;20052;-69
2023/05/17 09:53:25;;;;;;;2.28;0.65;;;;;;;;;;5064221;28;20407;-69
2023/05/17 09:55:53;;;;;;;3.80;1.00;;;;;;;;;;5057942;28;20135;-69
2023/05/17 09:58:20;;;;;;;3.42;1.00;;;;;;;;;;5061545;28;20135;-69
2023/05/17 10:00:52;;;;;;;4.57;1.23;;;;;;;;;;5065270;28;20052;-69
2023/05/17 10:03:19;;;;;;;3.85;0.77;;;;;;;;;;5061099;28;20048;-69
2023/05/17 10:05:47;;;;;;;3.83;1.05;;;;;;;;;;5065410;28;20063;-69
2023/05/17 10:08:15;;;;;;;4.65;0.88;;;;;;;;;;5070530;28;20372;-69
2023/05/17 10:10:42;;;;;;;6.20;0.75;;;;;;;;;;5066602;28;20048;-69
2023/05/17 10:13:11;;;;;;;2.63;0.85;;;;;;;;;;5070448;28;20059;-69
2023/05/17 10:15:39;;;;;;;4.10;0.80;;;;;;;;;;5068103;28;20055;-69
2023/05/17 10:18:09;;;;;;;4.72;0.93;;;;;;;;;;5070234;28;20048;-69
2023/05/17 10:20:37;;;;;;;4.18;1.08;;;;;;;;;;5066714;28;20048;-69
2023/05/17 10:23:05;;;;;;;5.82;1.10;;;;;;;;;;5056798;28;20558;-70
2023/05/17 10:25:32;;;;;;;3.15;0.80;;;;;;;;;;5061461;28;20463;-70
2023/05/17 10:28:00;;;;;;;3.35;0.90;;;;;;;;;;5061927;28;20400;-69
2023/05/17 10:30:29;;;;;;;4.40;0.93;;;;;;;;;;5064713;28;20052;-69
2023/05/17 10:32:56;;;;;;;5.95;1.00;;;;;;;;;;5067763;28;21317;-70
2023/05/17 10:35:26;;;;;;;4.43;0.90;;;;;;;;;;5072175;28;20044;-70
2023/05/17 10:37:53;;;;;;;3.22;0.55;;;;;;;;;;5067387;28;20075;-69
2023/05/17 10:40:22;;;;;;;4.68;0.93;;;;;;;;;;5069690;28;20044;-69
2023/05/17 10:42:51;;;;;;;3.00;0.80;;;;;;;;;;5067519;28;20526;-70
2023/05/17 10:45:20;;;;;;;4.22;0.75;;;;;;;;;;5068860;28;20114;-70
2023/05/17 10:47:48;;;;;;;6.45;1.08;;;;;;;;;;5067526;28;20076;-69
2023/05/17 10:50:21;;;;;;;4.35;1.00;;;;;;;;;;5064176;28;20049;-69
2023/05/17 10:52:51;;;;;;;5.72;1.02;;;;;;;;;;5068885;28;20102;-69
2023/05/17 10:55:22;;;;;;;6.78;1.05;;;;;;;;;;5068342;28;20049;-69
2023/05/17 10:58:09;;;;;;;5.90;1.23;;;;;;;;;;5070166;28;20403;-69
2023/05/17 11:00:39;;;;;;;3.15;0.82;;;;;;;;;;5070875;28;20114;-70
2023/05/17 11:03:14;;;;;;;6.60;1.15;;;;;;;;;;5067077;28;20045;-69
2023/05/17 11:05:43;;;;;;;7.13;1.20;;;;;;;;;;5063855;28;20055;-70
2023/05/17 11:08:15;;;;;;;5.18;0.80;;;;;;;;;;5065236;28;20051;-69
2023/05/17 11:11:09;;;;;;;6.43;1.13;;;;;;;;;;5065502;28;20063;-69
2023/05/17 11:13:44;;;;;;;3.40;0.82;;;;;;;;;;5061312;28;20287;-69
2023/05/17 11:16:14;;;;;;;4.65;1.00;;;;;;;;;;5070334;28;20106;-70
2023/05/17 11:18:51;;;;;;;4.93;1.02;;;;;;;;;;5069203;28;20049;-70
2023/05/17 11:21:19;;;;;;;4.57;1.15;;;;;;;;;;5068896;28;20123;-69
2023/05/17 11:23:48;;;;;;;3.95;0.70;;;;;;;;;;5069122;28;20055;-69
2023/05/17 11:26:21;;;;;;;6.85;0.95;;;;;;;;;;5068776;28;20053;-70
2023/05/17 11:28:49;;;;;;;;;;;;;;;;;;5069847;28;20045;-70
2023/05/17 11:31:16;;;;;;;3.67;0.82;;;;;;;;;;5067487;28;19932;-69
2023/05/17 11:33:44;;;;;;;5.07;0.93;;;;;;;;;;5066308;28;20053;-69
2023/05/17 11:36:16;;;;;;;3.35;0.85;;;;;;;;;;5063256;28;20048;-69
2023/05/17 11:38:43;;;;;;;3.00;0.97;;;;;;;;;;5070267;28;20131;-69
2023/05/17 11:41:20;;;;;;;5.28;1.00;;;;;;;;;;5065783;28;20067;-70
2023/05/17 11:43:48;;;;;;;4.85;1.00;;;;;;;;;;5068929;28;20052;-69
2023/05/17 11:46:22;;;;;;;5.50;0.88;;;;;;;;;;5062964;28;20345;-69
2023/05/17 11:48:51;;;;;;;2.65;0.77;;;;;;;;;;5068174;28;20076;-69
2023/05/17 11:51:18;;;;;;;3.03;0.82;;;;;;;;;;5063610;28;20040;-70
2023/05/17 11:53:47;;;;;;;3.05;1.02;;;;;;;;;;5068515;28;20131;-69
2023/05/17 11:56:15;;;;;;;6.85;0.88;;;;;;;;;;5070520;28;20418;-69
2023/05/17 11:58:44;;;;;;;2.70;0.85;;;;;;;;;;5065025;28;20056;-70
2023/05/17 12:01:11;;;;;;;3.13;0.75;;;;;;;;;;5063050;28;20080;-70
2023/05/17 12:03:38;;;;;;;6.10;0.90;;;;;;;;;;5067894;28;20514;-70
2023/05/17 12:06:08;;;;;;;2.50;0.80;;;;;;;;;;5069481;28;20060;-70
2023/05/17 12:08:35;;;;;;;2.65;0.88;;;;;;;;;;5065586;28;20454;-70
2023/05/17 12:11:03;;;;;;;1.42;0.70;;;;;;;;;;5067568;28;20060;-70
2023/05/17 12:13:31;;;;;;;2.28;0.60;;;;;;;;;;5066257;28;20488;-69
2023/05/17 12:16:02;;;;;;;3.08;0.80;;;;;;;;;;5066716;28;20048;-69
2023/05/17 12:18:36;;;;;;;4.70;0.98;;;;;;;;;;5068841;28;20055;-70
2023/05/17 12:21:04;;;;;;;3.58;0.77;;;;;;;;;;5068186;28;20048;-70
2023/05/17 12:23:32;;;;;;;2.25;0.60;;;;;;;;;;5070005;28;20504;-69
2023/05/17 12:26:06;;;;;;;1.77;0.60;;;;;;;;;;5068415;28;20052;-70
2023/05/17 12:28:33;;;;;;;4.82;0.80;;;;;;;;;;5069240;28;20052;-70
2023/05/17 12:31:02;;;;;;;2.90;0.82;;;;;;;;;;5068303;28;20052;-70
2023/05/17 12:33:31;;;;;;;2.47;0.60;;;;;;;;;;5069412;28;20049;-69
2023/05/17 12:35:59;;;;;;;3.40;0.60;;;;;;;;;;5069456;28;20470;-69
2023/05/17 12:38:30;;;;;;;4.63;0.98;;;;;;;;;;5070936;28;20060;-69
2023/05/17 12:40:58;;;;;;;4.90;0.70;;;;;;;;;;5067479;28;20045;-69
2023/05/17 12:43:25;;;;;;;2.03;0.68;;;;;;;;;;5069500;28;20159;-69
2023/05/17 12:45:53;;;;;;;4.25;0.80;;;;;;;;;;5070390;28;20055;-70
2023/05/17 12:48:26;;;;;;;2.22;0.93;;;;;;;;;;5069775;28;20579;-69
2023/05/17 12:50:54;;;;;;;1.55;0.70;;;;;;;;;;5070032;28;20051;-69
2023/05/17 12:53:22;;;;;;;4.05;0.85;;;;;;;;;;5068531;28;20518;-70
2023/05/17 12:55:49;;;;;;;3.00;0.73;;;;;;;;;;5068702;28;20064;-70
2023/05/17 12:58:16;;;;;;;1.52;0.70;;;;;;;;;;5068211;28;20045;-70
2023/05/17 13:00:56;;;;;;;4.47;1.00;;;;;;;;;;5068878;28;20044;-70
2023/05/17 13:03:26;;;;;;;1.85;0.63;;;;;;;;;;5068275;28;20399;-70
2023/05/17 13:06:00;;;;;;;2.40;0.93;;;;;;;;;;5065989;28;20076;-70
2023/05/17 13:08:27;;;;;;;5.00;1.25;;;;;;;;;;5067101;28;20051;-70
2023/05/17 13:10:54;;;;;;;3.35;0.90;;;;;;;;;;5061195;28;20056;-70
2023/05/17 13:13:21;;;;;;;8.30;1.38;;;;;;;;;;5065005;28;20060;-69
2023/05/17 13:15:49;;;;;;;1.67;0.80;;;;;;;;;;5070080;28;20055;-69
2023/05/17 13:18:16;;;;;;;3.75;0.90;;;;;;;;;;5068207;28;20045;-69
2023/05/17 13:20:45;;;;;;;1.42;0.63;;;;;;;;;;5069442;28;20573;-70
2023/05/17 13:23:12;;;;;;;3.03;0.80;;;;;;;;;;5068523;28;20044;-69
2023/05/17 13:25:39;;;;;;;2.85;0.70;;;;;;;;;;5071826;28;20052;-70
2023/05/17 13:28:07;;;;;;;3.95;0.85;;;;;;;;;;5068439;28;20102;-69
2023/05/17 13:30:34;;;;;;;1.58;0.65;;;;;;;;;;5069291;28;20044;-69
2023/05/17 13:33:01;;;;;;;3.25;0.80;;;;;;;;;;5068478;28;20048;-70
2023/05/17 13:35:28;;;;;;;3.15;0.82;;;;;;;;;;5068944;28;20127;-70
2023/05/17 13:37:57;;;;;;;3.42;0.90;;;;;;;;;;5067800;28;20341;-69
2023/05/17 13:40:24;;;;;;;1.35;0.60;;;;;;;;;;5066809;28;20498;-69
2023/05/17 13:42:52;;;;;;;4.60;0.75;;;;;;;;;;5068155;28;20037;-69
2023/05/17 13:45:19;;;;;;;2.35;0.82;;;;;;;;;;5069151;28;20158;-69
2023/05/17 13:47:46;;;;;;;2.67;0.65;;;;;;;;;;5072441;28;20114;-70
2023/05/17 13:50:16;;;;;;;2.60;0.60;;;;;;;;;;5071962;28;20555;-70
2023/05/17 13:52:43;;;;;;;3.30;0.80;;;;;;;;;;5070729;28;20059;-70
2023/05/17 13:55:12;;;;;;;2.40;0.68;;;;;;;;;;5068250;28;20056;-69
2023/05/17 13:57:40;;;;;;;3.15;0.75;;;;;;;;;;5071141;28;20052;-69
2023/05/17 14:00:08;;;;;;;3.17;0.70;;;;;;;;;;5070805;28;20041;-70
2023/05/17 14:02:36;;;;;;;4.63;1.10;;;;;;;;;;5072585;28;20040;-69
2023/05/17 14:05:06;;;;;;;2.80;0.77;;;;;;;;;;5076567;28;20484;-69
2023/05/17 14:07:33;;;;;;;2.47;0.60;;;;;;;;;;5066269;28;20059;-69
2023/05/17 14:10:00;;;;;;;3.50;0.90;;;;;;;;;;5072705;28;20040;-69
2023/05/17 14:12:29;;;;;;;3.80;0.90;;;;;;;;;;5069431;28;20041;-69
2023/05/17 14:14:56;;;;;;;3.20;0.50;;;;;;;;;;5068660;28;20052;-69
2023/05/17 14:17:24;;;;;;;4.03;0.80;;;;;;;;;;5072460;28;20468;-69
2023/05/17 14:19:51;;;;;;;2.80;0.68;;;;;;;;;;5071277;28;20044;-69
2023/05/17 14:22:18;;;;;;;2.55;0.52;;;;;;;;;;5071898;28;20044;-69
2023/05/17 14:24:45;;;;;;;4.18;0.80;;;;;;;;;;5071168;28;20040;-69
2023/05/17 14:27:13;;;;;;;2.45;0.60;;;;;;;;;;5070801;28;20051;-69
2023/05/17 14:29:41;;;;;;;4.18;0.80;;;;;;;;;;5071417;28;20135;-69
2023/05/17 14:32:11;;;;;;;6.57;0.90;;;;;;;;;;5071658;28;20048;-69
2023/05/17 14:34:38;;;;;;;2.78;0.75;;;;;;;;;;5069630;28;20061;-69
2023/05/17 14:37:06;;;;;;;4.75;0.88;;;;;;;;;;5067439;28;20067;-69
2023/05/17 14:39:33;;;;;;;4.05;0.80;;;;;;;;;;5069858;28;20049;-69
2023/05/17 14:42:01;;;;;;;2.80;0.63;;;;;;;;;;5068844;28;20108;-69
2023/05/17 14:44:28;;;;;;;3.55;1.20;;;;;;;;;;5069584;28;20155;-69
2023/05/17 14:46:57;;;;;;;2.63;0.82;;;;;;;;;;5067945;28;20045;-69
2023/05/17 14:49:24;;;;;;;2.42;0.60;;;;;;;;;;5070164;28;20045;-69